Terminal Aerodrome Forecast
Issued by NWS

Home | Current Version | Previous Version | Graphics & Text | Print | Product List | Glossary On
Versions: 1 2 3 4 5 6 7 8 9 10 11 12 13 14 15 16 17 18 19 20 21 22 23
000
FTUS43 KABR 311020 AAB
TAFMBG
TAF AMD
KMBG 311020Z 3110/0106 26007KT P6SM SKC
     FM311600 26020G30KT P6SM BKN050
     FM010100 29018KT P6SM BKN045=

USA.gov is the U.S. government's official web portal to all federal, state and local government web resources and services.